sensor_id;sensor_type;location;lat;lon;timestamp;P1;durP1;ratioP1;P2;durP2;ratioP2
35648;SDS011;21768;48.562;13.414;2022-12-18T00:01:23;62.53;;;20.42;;
35648;SDS011;21768;48.562;13.414;2022-12-18T00:03:51;65.25;;;19.95;;
35648;SDS011;21768;48.562;13.414;2022-12-18T00:06:17;55.20;;;19.15;;
35648;SDS011;21768;48.562;13.414;2022-12-18T00:08:44;65.43;;;21.88;;
35648;SDS011;21768;48.562;13.414;2022-12-18T00:11:14;57.05;;;20.42;;
35648;SDS011;21768;48.562;13.414;2022-12-18T00:13:41;52.85;;;19.30;;
35648;SDS011;21768;48.562;13.414;2022-12-18T00:16:09;58.33;;;19.67;;
35648;SDS011;21768;48.562;13.414;2022-12-18T00:18:39;61.83;;;20.33;;
35648;SDS011;21768;48.562;13.414;2022-12-18T00:21:06;63.63;;;20.70;;
35648;SDS011;21768;48.562;13.414;2022-12-18T00:23:34;52.90;;;19.42;;
35648;SDS011;21768;48.562;13.414;2022-12-18T00:26:00;57.65;;;19.67;;
35648;SDS011;21768;48.562;13.414;2022-12-18T00:28:27;59.72;;;20.80;;
35648;SDS011;21768;48.562;13.414;2022-12-18T00:31:02;67.40;;;20.50;;
35648;SDS011;21768;48.562;13.414;2022-12-18T00:33:32;58.55;;;19.55;;
35648;SDS011;21768;48.562;13.414;2022-12-18T00:36:01;58.65;;;19.35;;
35648;SDS011;21768;48.562;13.414;2022-12-18T00:38:31;63.75;;;21.02;;
35648;SDS011;21768;48.562;13.414;2022-12-18T00:40:57;60.15;;;19.52;;
35648;SDS011;21768;48.562;13.414;2022-12-18T00:43:22;61.45;;;20.00;;
35648;SDS011;21768;48.562;13.414;2022-12-18T00:45:48;64.10;;;21.27;;
35648;SDS011;21768;48.562;13.414;2022-12-18T00:48:13;66.03;;;21.35;;
35648;SDS011;21768;48.562;13.414;2022-12-18T00:50:38;62.35;;;20.30;;
35648;SDS011;21768;48.562;13.414;2022-12-18T00:53:04;60.40;;;19.63;;
35648;SDS011;21768;48.562;13.414;2022-12-18T00:55:29;67.53;;;20.80;;
35648;SDS011;21768;48.562;13.414;2022-12-18T00:57:55;57.30;;;19.05;;
35648;SDS011;21768;48.562;13.414;2022-12-18T01:00:20;57.80;;;18.83;;
35648;SDS011;21768;48.562;13.414;2022-12-18T01:02:46;59.42;;;19.42;;
35648;SDS011;21768;48.562;13.414;2022-12-18T01:05:12;68.40;;;22.23;;
35648;SDS011;21768;48.562;13.414;2022-12-18T01:07:38;54.08;;;18.77;;
35648;SDS011;21768;48.562;13.414;2022-12-18T01:10:04;77.88;;;22.75;;
35648;SDS011;21768;48.562;13.414;2022-12-18T01:12:31;61.55;;;21.70;;
35648;SDS011;21768;48.562;13.414;2022-12-18T01:14:56;67.50;;;21.23;;
35648;SDS011;21768;48.562;13.414;2022-12-18T01:17:22;81.38;;;24.98;;
35648;SDS011;21768;48.562;13.414;2022-12-18T01:19:47;68.97;;;21.13;;
35648;SDS011;21768;48.562;13.414;2022-12-18T01:22:13;73.13;;;23.58;;
35648;SDS011;21768;48.562;13.414;2022-12-18T01:24:38;66.15;;;22.23;;
35648;SDS011;21768;48.562;13.414;2022-12-18T01:27:03;67.15;;;22.23;;
35648;SDS011;21768;48.562;13.414;2022-12-18T01:29:29;67.32;;;21.27;;
35648;SDS011;21768;48.562;13.414;2022-12-18T01:31:55;62.33;;;21.23;;
35648;SDS011;21768;48.562;13.414;2022-12-18T01:34:21;72.78;;;21.58;;
35648;SDS011;21768;48.562;13.414;2022-12-18T01:36:47;64.57;;;20.85;;
35648;SDS011;21768;48.562;13.414;2022-12-18T01:39:13;59.03;;;20.30;;
35648;SDS011;21768;48.562;13.414;2022-12-18T01:41:39;71.00;;;21.50;;
35648;SDS011;21768;48.562;13.414;2022-12-18T01:50:11;65.43;;;20.98;;
35648;SDS011;21768;48.562;13.414;2022-12-18T01:52:41;65.18;;;21.13;;
35648;SDS011;21768;48.562;13.414;2022-12-18T01:55:09;63.13;;;20.38;;
35648;SDS011;21768;48.562;13.414;2022-12-18T01:57:37;72.28;;;22.15;;
35648;SDS011;21768;48.562;13.414;2022-12-18T02:00:07;76.65;;;22.65;;
35648;SDS011;21768;48.562;13.414;2022-12-18T02:02:35;69.47;;;21.85;;
35648;SDS011;21768;48.562;13.414;2022-12-18T02:05:02;63.28;;;21.35;;
35648;SDS011;21768;48.562;13.414;2022-12-18T02:10:54;70.97;;;21.83;;
35648;SDS011;21768;48.562;13.414;2022-12-18T02:13:29;64.10;;;20.98;;
35648;SDS011;21768;48.562;13.414;2022-12-18T02:16:23;60.78;;;20.27;;
35648;SDS011;21768;48.562;13.414;2022-12-18T02:18:54;56.22;;;19.30;;
35648;SDS011;21768;48.562;13.414;2022-12-18T02:21:31;71.13;;;21.08;;
35648;SDS011;21768;48.562;13.414;2022-12-18T02:26:46;63.88;;;21.50;;
35648;SDS011;21768;48.562;13.414;2022-12-18T02:29:16;67.82;;;22.15;;
35648;SDS011;21768;48.562;13.414;2022-12-18T02:31:52;62.20;;;19.67;;
35648;SDS011;21768;48.562;13.414;2022-12-18T02:34:22;69.57;;;20.65;;
35648;SDS011;21768;48.562;13.414;2022-12-18T02:36:53;62.88;;;19.98;;
35648;SDS011;21768;48.562;13.414;2022-12-18T02:39:21;75.50;;;21.02;;
35648;SDS011;21768;48.562;13.414;2022-12-18T02:41:50;65.93;;;20.52;;
35648;SDS011;21768;48.562;13.414;2022-12-18T02:44:16;66.53;;;22.58;;
35648;SDS011;21768;48.562;13.414;2022-12-18T02:46:51;59.08;;;19.92;;
35648;SDS011;21768;48.562;13.414;2022-12-18T02:52:08;79.05;;;23.75;;
35648;SDS011;21768;48.562;13.414;2022-12-18T02:54:50;74.45;;;22.30;;
35648;SDS011;21768;48.562;13.414;2022-12-18T02:57:25;66.72;;;21.05;;
35648;SDS011;21768;48.562;13.414;2022-12-18T03:00:10;74.35;;;21.90;;
35648;SDS011;21768;48.562;13.414;2022-12-18T03:03:06;70.45;;;22.45;;
35648;SDS011;21768;48.562;13.414;2022-12-18T03:05:41;72.25;;;21.77;;
35648;SDS011;21768;48.562;13.414;2022-12-18T03:10:42;74.38;;;22.10;;
35648;SDS011;21768;48.562;13.414;2022-12-18T03:13:19;76.00;;;23.25;;
35648;SDS011;21768;48.562;13.414;2022-12-18T03:15:51;70.30;;;22.50;;
35648;SDS011;21768;48.562;13.414;2022-12-18T03:18:21;75.53;;;22.55;;
35648;SDS011;21768;48.562;13.414;2022-12-18T03:20:51;70.70;;;21.50;;
35648;SDS011;21768;48.562;13.414;2022-12-18T03:23:21;73.43;;;23.13;;
35648;SDS011;21768;48.562;13.414;2022-12-18T03:25:51;69.03;;;21.73;;
35648;SDS011;21768;48.562;13.414;2022-12-18T03:28:21;73.18;;;21.98;;
35648;SDS011;21768;48.562;13.414;2022-12-18T03:30:48;77.88;;;23.73;;
35648;SDS011;21768;48.562;13.414;2022-12-18T03:34:02;77.30;;;22.83;;
35648;SDS011;21768;48.562;13.414;2022-12-18T03:36:25;72.22;;;21.33;;
35648;SDS011;21768;48.562;13.414;2022-12-18T03:38:52;70.70;;;21.38;;
35648;SDS011;21768;48.562;13.414;2022-12-18T03:49:25;77.38;;;21.83;;
35648;SDS011;21768;48.562;13.414;2022-12-18T03:54:23;65.75;;;19.90;;
35648;SDS011;21768;48.562;13.414;2022-12-18T03:56:53;72.45;;;22.33;;
35648;SDS011;21768;48.562;13.414;2022-12-18T03:59:25;72.18;;;22.23;;
35648;SDS011;21768;48.562;13.414;2022-12-18T04:01:53;66.45;;;21.13;;
35648;SDS011;21768;48.562;13.414;2022-12-18T04:04:22;73.88;;;22.77;;
35648;SDS011;21768;48.562;13.414;2022-12-18T04:06:49;75.30;;;21.63;;
35648;SDS011;21768;48.562;13.414;2022-12-18T04:09:15;69.80;;;22.10;;
35648;SDS011;21768;48.562;13.414;2022-12-18T04:11:41;67.85;;;21.98;;
35648;SDS011;21768;48.562;13.414;2022-12-18T04:14:08;67.53;;;21.08;;
35648;SDS011;21768;48.562;13.414;2022-12-18T04:16:35;73.57;;;21.48;;
35648;SDS011;21768;48.562;13.414;2022-12-18T04:19:00;74.00;;;21.73;;
35648;SDS011;21768;48.562;13.414;2022-12-18T04:21:26;69.30;;;21.17;;
35648;SDS011;21768;48.562;13.414;2022-12-18T04:23:51;78.53;;;22.17;;
35648;SDS011;21768;48.562;13.414;2022-12-18T04:26:16;68.75;;;22.33;;
35648;SDS011;21768;48.562;13.414;2022-12-18T04:28:42;68.40;;;20.70;;
35648;SDS011;21768;48.562;13.414;2022-12-18T04:31:07;76.10;;;23.17;;
35648;SDS011;21768;48.562;13.414;2022-12-18T04:33:33;69.82;;;21.73;;
35648;SDS011;21768;48.562;13.414;2022-12-18T04:35:58;72.28;;;22.23;;
35648;SDS011;21768;48.562;13.414;2022-12-18T04:38:24;69.32;;;22.02;;
35648;SDS011;21768;48.562;13.414;2022-12-18T04:40:49;66.80;;;21.30;;
35648;SDS011;21768;48.562;13.414;2022-12-18T04:43:14;70.97;;;22.15;;
35648;SDS011;21768;48.562;13.414;2022-12-18T04:45:40;71.22;;;20.90;;
35648;SDS011;21768;48.562;13.414;2022-12-18T04:48:05;71.88;;;21.08;;
35648;SDS011;21768;48.562;13.414;2022-12-18T04:50:31;75.00;;;22.23;;
35648;SDS011;21768;48.562;13.414;2022-12-18T04:52:57;71.35;;;21.10;;
35648;SDS011;21768;48.562;13.414;2022-12-18T04:55:23;67.78;;;21.42;;
35648;SDS011;21768;48.562;13.414;2022-12-18T04:57:50;73.90;;;21.85;;
35648;SDS011;21768;48.562;13.414;2022-12-18T05:00:15;69.57;;;21.90;;
35648;SDS011;21768;48.562;13.414;2022-12-18T05:02:41;74.75;;;22.65;;
35648;SDS011;21768;48.562;13.414;2022-12-18T05:05:06;75.38;;;21.67;;
35648;SDS011;21768;48.562;13.414;2022-12-18T05:07:32;78.05;;;23.40;;
35648;SDS011;21768;48.562;13.414;2022-12-18T05:09:58;76.97;;;21.60;;
35648;SDS011;21768;48.562;13.414;2022-12-18T05:12:23;72.40;;;22.08;;
35648;SDS011;21768;48.562;13.414;2022-12-18T05:14:49;69.90;;;21.05;;
35648;SDS011;21768;48.562;13.414;2022-12-18T05:17:14;63.55;;;19.27;;
35648;SDS011;21768;48.562;13.414;2022-12-18T05:19:39;66.68;;;20.98;;
35648;SDS011;21768;48.562;13.414;2022-12-18T05:22:05;71.18;;;21.27;;
35648;SDS011;21768;48.562;13.414;2022-12-18T05:24:30;71.75;;;19.70;;
35648;SDS011;21768;48.562;13.414;2022-12-18T05:26:56;69.07;;;21.83;;
35648;SDS011;21768;48.562;13.414;2022-12-18T05:29:21;75.95;;;21.40;;
35648;SDS011;21768;48.562;13.414;2022-12-18T05:31:46;62.60;;;20.70;;
35648;SDS011;21768;48.562;13.414;2022-12-18T05:34:12;72.68;;;21.77;;
35648;SDS011;21768;48.562;13.414;2022-12-18T05:36:37;68.75;;;21.60;;
35648;SDS011;21768;48.562;13.414;2022-12-18T05:39:03;71.90;;;20.67;;
35648;SDS011;21768;48.562;13.414;2022-12-18T05:41:28;67.55;;;20.67;;
35648;SDS011;21768;48.562;13.414;2022-12-18T05:43:54;63.85;;;19.13;;
35648;SDS011;21768;48.562;13.414;2022-12-18T05:46:19;65.85;;;20.70;;
35648;SDS011;21768;48.562;13.414;2022-12-18T05:48:45;66.32;;;19.90;;
35648;SDS011;21768;48.562;13.414;2022-12-18T05:51:12;63.78;;;20.08;;
35648;SDS011;21768;48.562;13.414;2022-12-18T05:53:39;62.80;;;18.83;;
35648;SDS011;21768;48.562;13.414;2022-12-18T05:56:07;66.93;;;19.92;;
35648;SDS011;21768;48.562;13.414;2022-12-18T05:58:40;58.55;;;17.60;;
35648;SDS011;21768;48.562;13.414;2022-12-18T06:01:06;58.92;;;18.88;;
35648;SDS011;21768;48.562;13.414;2022-12-18T06:03:38;62.78;;;19.38;;
35648;SDS011;21768;48.562;13.414;2022-12-18T06:06:03;60.67;;;17.80;;
35648;SDS011;21768;48.562;13.414;2022-12-18T06:08:37;64.63;;;19.80;;
35648;SDS011;21768;48.562;13.414;2022-12-18T06:11:02;63.58;;;19.10;;
35648;SDS011;21768;48.562;13.414;2022-12-18T06:13:28;68.07;;;19.30;;
35648;SDS011;21768;48.562;13.414;2022-12-18T06:15:53;63.67;;;18.60;;
35648;SDS011;21768;48.562;13.414;2022-12-18T06:18:18;57.80;;;18.70;;
35648;SDS011;21768;48.562;13.414;2022-12-18T06:20:44;61.22;;;20.13;;
35648;SDS011;21768;48.562;13.414;2022-12-18T06:23:09;77.38;;;19.05;;
35648;SDS011;21768;48.562;13.414;2022-12-18T06:25:37;63.72;;;20.27;;
35648;SDS011;21768;48.562;13.414;2022-12-18T06:28:03;58.00;;;18.33;;
35648;SDS011;21768;48.562;13.414;2022-12-18T06:30:28;64.55;;;15.98;;
35648;SDS011;21768;48.562;13.414;2022-12-18T06:32:54;59.38;;;18.13;;
35648;SDS011;21768;48.562;13.414;2022-12-18T06:35:19;59.67;;;16.95;;
35648;SDS011;21768;48.562;13.414;2022-12-18T06:37:44;55.58;;;15.23;;
35648;SDS011;21768;48.562;13.414;2022-12-18T06:40:10;56.28;;;17.27;;
35648;SDS011;21768;48.562;13.414;2022-12-18T06:42:35;64.47;;;18.25;;
35648;SDS011;21768;48.562;13.414;2022-12-18T06:45:00;63.08;;;18.00;;
35648;SDS011;21768;48.562;13.414;2022-12-18T06:47:26;50.00;;;16.70;;
35648;SDS011;21768;48.562;13.414;2022-12-18T06:49:51;68.05;;;18.75;;
35648;SDS011;21768;48.562;13.414;2022-12-18T06:52:17;60.60;;;17.88;;
35648;SDS011;21768;48.562;13.414;2022-12-18T06:54:42;66.78;;;18.80;;
35648;SDS011;21768;48.562;13.414;2022-12-18T06:57:07;62.22;;;16.92;;
35648;SDS011;21768;48.562;13.414;2022-12-18T06:59:33;57.60;;;17.70;;
35648;SDS011;21768;48.562;13.414;2022-12-18T07:01:58;64.03;;;17.77;;
35648;SDS011;21768;48.562;13.414;2022-12-18T07:04:30;57.33;;;17.40;;
35648;SDS011;21768;48.562;13.414;2022-12-18T07:06:56;61.50;;;18.23;;
35648;SDS011;21768;48.562;13.414;2022-12-18T07:09:22;61.15;;;18.20;;
35648;SDS011;21768;48.562;13.414;2022-12-18T07:11:48;64.20;;;18.65;;
35648;SDS011;21768;48.562;13.414;2022-12-18T07:14:13;61.22;;;18.10;;
35648;SDS011;21768;48.562;13.414;2022-12-18T07:16:39;62.28;;;19.73;;
35648;SDS011;21768;48.562;13.414;2022-12-18T07:19:04;51.80;;;17.98;;
35648;SDS011;21768;48.562;13.414;2022-12-18T07:21:29;77.65;;;18.08;;
35648;SDS011;21768;48.562;13.414;2022-12-18T07:23:55;91.78;;;17.65;;
35648;SDS011;21768;48.562;13.414;2022-12-18T07:26:21;62.92;;;17.25;;
35648;SDS011;21768;48.562;13.414;2022-12-18T07:28:47;80.25;;;18.77;;
35648;SDS011;21768;48.562;13.414;2022-12-18T07:31:15;64.03;;;18.98;;
35648;SDS011;21768;48.562;13.414;2022-12-18T07:33:42;54.60;;;15.93;;
35648;SDS011;21768;48.562;13.414;2022-12-18T07:36:08;57.17;;;17.30;;
35648;SDS011;21768;48.562;13.414;2022-12-18T07:38:34;73.05;;;18.92;;
35648;SDS011;21768;48.562;13.414;2022-12-18T07:41:01;68.93;;;18.63;;
35648;SDS011;21768;48.562;13.414;2022-12-18T07:43:31;62.28;;;17.98;;
35648;SDS011;21768;48.562;13.414;2022-12-18T07:45:56;51.17;;;16.33;;
35648;SDS011;21768;48.562;13.414;2022-12-18T07:48:22;54.20;;;18.63;;
35648;SDS011;21768;48.562;13.414;2022-12-18T07:50:47;60.65;;;17.80;;
35648;SDS011;21768;48.562;13.414;2022-12-18T07:53:13;53.72;;;16.27;;
35648;SDS011;21768;48.562;13.414;2022-12-18T07:55:39;56.90;;;16.80;;
35648;SDS011;21768;48.562;13.414;2022-12-18T07:58:06;60.92;;;18.00;;
35648;SDS011;21768;48.562;13.414;2022-12-18T08:00:32;69.28;;;20.33;;
35648;SDS011;21768;48.562;13.414;2022-12-18T08:02:57;60.00;;;17.05;;
35648;SDS011;21768;48.562;13.414;2022-12-18T08:05:23;61.88;;;18.45;;
35648;SDS011;21768;48.562;13.414;2022-12-18T08:07:48;61.00;;;17.55;;
35648;SDS011;21768;48.562;13.414;2022-12-18T08:10:14;65.25;;;19.30;;
35648;SDS011;21768;48.562;13.414;2022-12-18T08:12:40;60.05;;;17.38;;
35648;SDS011;21768;48.562;13.414;2022-12-18T08:15:05;53.97;;;17.40;;
35648;SDS011;21768;48.562;13.414;2022-12-18T08:17:31;65.53;;;20.77;;
35648;SDS011;21768;48.562;13.414;2022-12-18T08:19:57;59.30;;;19.83;;
35648;SDS011;21768;48.562;13.414;2022-12-18T08:22:22;59.15;;;19.38;;
35648;SDS011;21768;48.562;13.414;2022-12-18T08:24:47;57.22;;;18.25;;
35648;SDS011;21768;48.562;13.414;2022-12-18T08:27:13;75.53;;;18.20;;
35648;SDS011;21768;48.562;13.414;2022-12-18T08:29:38;65.57;;;18.98;;
35648;SDS011;21768;48.562;13.414;2022-12-18T08:32:03;62.05;;;18.83;;
35648;SDS011;21768;48.562;13.414;2022-12-18T08:34:29;58.45;;;17.67;;
35648;SDS011;21768;48.562;13.414;2022-12-18T08:36:54;52.28;;;18.40;;
35648;SDS011;21768;48.562;13.414;2022-12-18T08:39:20;66.63;;;20.27;;
35648;SDS011;21768;48.562;13.414;2022-12-18T08:41:45;58.15;;;17.20;;
35648;SDS011;21768;48.562;13.414;2022-12-18T08:44:30;61.83;;;18.83;;
35648;SDS011;21768;48.562;13.414;2022-12-18T08:47:05;58.33;;;18.45;;
35648;SDS011;21768;48.562;13.414;2022-12-18T08:49:32;76.88;;;21.77;;
35648;SDS011;21768;48.562;13.414;2022-12-18T08:51:58;64.32;;;17.88;;
35648;SDS011;21768;48.562;13.414;2022-12-18T08:54:24;59.28;;;17.40;;
35648;SDS011;21768;48.562;13.414;2022-12-18T08:56:49;64.45;;;19.38;;
35648;SDS011;21768;48.562;13.414;2022-12-18T08:59:16;59.67;;;18.33;;
35648;SDS011;21768;48.562;13.414;2022-12-18T09:01:42;59.85;;;19.13;;
35648;SDS011;21768;48.562;13.414;2022-12-18T09:04:08;68.18;;;20.15;;
35648;SDS011;21768;48.562;13.414;2022-12-18T09:06:34;61.67;;;19.05;;
35648;SDS011;21768;48.562;13.414;2022-12-18T09:09:00;61.70;;;17.90;;
35648;SDS011;21768;48.562;13.414;2022-12-18T09:11:26;67.13;;;19.65;;
35648;SDS011;21768;48.562;13.414;2022-12-18T09:13:53;62.63;;;21.67;;
35648;SDS011;21768;48.562;13.414;2022-12-18T09:16:19;66.90;;;19.05;;
35648;SDS011;21768;48.562;13.414;2022-12-18T09:18:46;61.15;;;20.15;;
35648;SDS011;21768;48.562;13.414;2022-12-18T09:21:13;73.75;;;22.27;;
35648;SDS011;21768;48.562;13.414;2022-12-18T09:23:40;73.93;;;22.33;;
35648;SDS011;21768;48.562;13.414;2022-12-18T09:26:06;56.10;;;20.15;;
35648;SDS011;21768;48.562;13.414;2022-12-18T09:28:32;66.80;;;19.05;;
35648;SDS011;21768;48.562;13.414;2022-12-18T09:30:57;62.72;;;18.98;;
35648;SDS011;21768;48.562;13.414;2022-12-18T09:33:23;57.55;;;19.63;;
35648;SDS011;21768;48.562;13.414;2022-12-18T09:35:49;61.30;;;18.83;;
35648;SDS011;21768;48.562;13.414;2022-12-18T09:38:15;60.38;;;19.38;;
35648;SDS011;21768;48.562;13.414;2022-12-18T09:40:46;63.58;;;20.08;;
35648;SDS011;21768;48.562;13.414;2022-12-18T09:43:19;62.47;;;20.63;;
35648;SDS011;21768;48.562;13.414;2022-12-18T09:45:55;56.03;;;18.35;;
35648;SDS011;21768;48.562;13.414;2022-12-18T09:48:26;65.47;;;21.17;;
35648;SDS011;21768;48.562;13.414;2022-12-18T09:50:57;73.55;;;24.88;;
35648;SDS011;21768;48.562;13.414;2022-12-18T09:53:28;78.63;;;25.33;;
35648;SDS011;21768;48.562;13.414;2022-12-18T09:55:56;65.20;;;20.88;;
35648;SDS011;21768;48.562;13.414;2022-12-18T10:01:11;67.35;;;20.70;;
35648;SDS011;21768;48.562;13.414;2022-12-18T10:03:39;59.03;;;19.52;;
35648;SDS011;21768;48.562;13.414;2022-12-18T10:11:26;60.80;;;21.05;;
35648;SDS011;21768;48.562;13.414;2022-12-18T10:24:53;59.72;;;19.73;;
35648;SDS011;21768;48.562;13.414;2022-12-18T10:27:25;57.47;;;19.98;;
35648;SDS011;21768;48.562;13.414;2022-12-18T10:29:51;57.10;;;19.15;;
35648;SDS011;21768;48.562;13.414;2022-12-18T10:32:22;55.72;;;18.75;;
35648;SDS011;21768;48.562;13.414;2022-12-18T10:34:50;59.42;;;19.95;;
35648;SDS011;21768;48.562;13.414;2022-12-18T10:37:17;60.38;;;20.30;;
35648;SDS011;21768;48.562;13.414;2022-12-18T10:39:45;60.70;;;19.52;;
35648;SDS011;21768;48.562;13.414;2022-12-18T10:42:18;61.63;;;21.20;;
35648;SDS011;21768;48.562;13.414;2022-12-18T10:44:44;50.30;;;19.45;;
35648;SDS011;21768;48.562;13.414;2022-12-18T10:47:17;52.28;;;20.27;;
35648;SDS011;21768;48.562;13.414;2022-12-18T10:49:47;62.00;;;20.77;;
35648;SDS011;21768;48.562;13.414;2022-12-18T10:52:21;57.88;;;21.02;;
35648;SDS011;21768;48.562;13.414;2022-12-18T10:54:51;55.05;;;20.25;;
35648;SDS011;21768;48.562;13.414;2022-12-18T10:59:55;55.63;;;22.60;;
35648;SDS011;21768;48.562;13.414;2022-12-18T11:04:50;67.63;;;26.95;;
35648;SDS011;21768;48.562;13.414;2022-12-18T11:07:17;66.65;;;24.80;;
35648;SDS011;21768;48.562;13.414;2022-12-18T11:09:42;52.58;;;21.60;;
35648;SDS011;21768;48.562;13.414;2022-12-18T11:12:17;51.22;;;20.83;;
35648;SDS011;21768;48.562;13.414;2022-12-18T11:14:48;62.25;;;24.30;;
35648;SDS011;21768;48.562;13.414;2022-12-18T11:19:53;57.80;;;25.55;;
35648;SDS011;21768;48.562;13.414;2022-12-18T11:22:33;60.33;;;23.95;;
35648;SDS011;21768;48.562;13.414;2022-12-18T11:25:04;56.30;;;22.67;;
35648;SDS011;21768;48.562;13.414;2022-12-18T11:27:30;56.80;;;23.17;;
35648;SDS011;21768;48.562;13.414;2022-12-18T11:33:09;55.17;;;24.10;;
35648;SDS011;21768;48.562;13.414;2022-12-18T11:35:42;51.25;;;21.65;;
35648;SDS011;21768;48.562;13.414;2022-12-18T11:38:14;54.78;;;23.00;;
35648;SDS011;21768;48.562;13.414;2022-12-18T11:40:47;55.20;;;24.02;;
35648;SDS011;21768;48.562;13.414;2022-12-18T11:43:23;54.95;;;23.58;;
35648;SDS011;21768;48.562;13.414;2022-12-18T11:48:24;57.33;;;23.95;;
35648;SDS011;21768;48.562;13.414;2022-12-18T11:50:55;54.00;;;23.08;;
35648;SDS011;21768;48.562;13.414;2022-12-18T11:53:24;54.58;;;23.80;;
35648;SDS011;21768;48.562;13.414;2022-12-18T12:01:42;48.67;;;20.83;;
35648;SDS011;21768;48.562;13.414;2022-12-18T12:04:20;51.55;;;21.10;;
35648;SDS011;21768;48.562;13.414;2022-12-18T12:07:21;53.22;;;21.58;;
35648;SDS011;21768;48.562;13.414;2022-12-18T12:12:32;57.20;;;21.40;;
35648;SDS011;21768;48.562;13.414;2022-12-18T12:18:13;53.30;;;21.90;;
35648;SDS011;21768;48.562;13.414;2022-12-18T12:34:07;58.63;;;21.25;;
35648;SDS011;21768;48.562;13.414;2022-12-18T12:39:30;61.25;;;22.17;;
35648;SDS011;21768;48.562;13.414;2022-12-18T12:42:00;61.40;;;22.13;;
35648;SDS011;21768;48.562;13.414;2022-12-18T12:44:51;63.50;;;21.27;;
35648;SDS011;21768;48.562;13.414;2022-12-18T12:47:25;63.03;;;22.33;;
35648;SDS011;21768;48.562;13.414;2022-12-18T12:49:54;55.45;;;22.20;;
35648;SDS011;21768;48.562;13.414;2022-12-18T12:54:57;64.50;;;22.00;;
35648;SDS011;21768;48.562;13.414;2022-12-18T13:00:11;57.20;;;20.33;;
35648;SDS011;21768;48.562;13.414;2022-12-18T13:08:11;57.95;;;20.75;;
35648;SDS011;21768;48.562;13.414;2022-12-18T13:10:47;75.50;;;25.33;;
35648;SDS011;21768;48.562;13.414;2022-12-18T13:13:14;81.75;;;25.80;;
35648;SDS011;21768;48.562;13.414;2022-12-18T13:18:29;65.82;;;21.95;;
35648;SDS011;21768;48.562;13.414;2022-12-18T13:25:49;66.40;;;23.27;;
35648;SDS011;21768;48.562;13.414;2022-12-18T13:28:18;71.07;;;22.67;;
35648;SDS011;21768;48.562;13.414;2022-12-18T13:30:50;63.42;;;22.27;;
35648;SDS011;21768;48.562;13.414;2022-12-18T13:38:23;58.80;;;22.08;;
35648;SDS011;21768;48.562;13.414;2022-12-18T13:46:24;60.50;;;22.77;;
35648;SDS011;21768;48.562;13.414;2022-12-18T13:51:46;65.18;;;21.50;;
35648;SDS011;21768;48.562;13.414;2022-12-18T13:56:45;67.63;;;22.52;;
35648;SDS011;21768;48.562;13.414;2022-12-18T13:59:25;61.95;;;21.65;;
35648;SDS011;21768;48.562;13.414;2022-12-18T14:01:53;60.92;;;22.08;;
35648;SDS011;21768;48.562;13.414;2022-12-18T14:09:53;65.95;;;21.80;;
35648;SDS011;21768;48.562;13.414;2022-12-18T14:20:52;60.40;;;20.45;;
35648;SDS011;21768;48.562;13.414;2022-12-18T14:23:38;56.08;;;20.13;;
35648;SDS011;21768;48.562;13.414;2022-12-18T14:28:54;52.42;;;18.52;;
35648;SDS011;21768;48.562;13.414;2022-12-18T14:31:27;54.55;;;18.80;;
35648;SDS011;21768;48.562;13.414;2022-12-18T14:33:54;55.30;;;18.85;;
35648;SDS011;21768;48.562;13.414;2022-12-18T14:36:21;57.88;;;18.83;;
35648;SDS011;21768;48.562;13.414;2022-12-18T14:38:55;53.58;;;19.35;;
35648;SDS011;21768;48.562;13.414;2022-12-18T14:41:23;55.85;;;18.90;;
35648;SDS011;21768;48.562;13.414;2022-12-18T14:43:50;50.70;;;18.83;;
35648;SDS011;21768;48.562;13.414;2022-12-18T14:46:30;55.70;;;19.42;;
35648;SDS011;21768;48.562;13.414;2022-12-18T14:49:00;50.17;;;18.70;;
35648;SDS011;21768;48.562;13.414;2022-12-18T14:51:29;51.00;;;16.65;;
35648;SDS011;21768;48.562;13.414;2022-12-18T14:53:57;61.22;;;18.55;;
35648;SDS011;21768;48.562;13.414;2022-12-18T14:56:29;54.00;;;18.58;;
35648;SDS011;21768;48.562;13.414;2022-12-18T14:59:12;54.92;;;17.83;;
35648;SDS011;21768;48.562;13.414;2022-12-18T15:04:29;50.65;;;16.65;;
35648;SDS011;21768;48.562;13.414;2022-12-18T15:10:02;50.33;;;16.33;;
35648;SDS011;21768;48.562;13.414;2022-12-18T15:12:46;48.78;;;16.95;;
35648;SDS011;21768;48.562;13.414;2022-12-18T15:20:26;32.22;;;12.48;;
35648;SDS011;21768;48.562;13.414;2022-12-18T15:22:52;29.05;;;12.27;;
35648;SDS011;21768;48.562;13.414;2022-12-18T15:25:28;33.85;;;12.60;;
35648;SDS011;21768;48.562;13.414;2022-12-18T15:27:59;32.00;;;11.88;;
35648;SDS011;21768;48.562;13.414;2022-12-18T15:30:24;44.88;;;16.08;;
35648;SDS011;21768;48.562;13.414;2022-12-18T15:32:50;55.47;;;17.15;;
35648;SDS011;21768;48.562;13.414;2022-12-18T15:35:18;31.67;;;12.15;;
35648;SDS011;21768;48.562;13.414;2022-12-18T15:37:48;79.50;;;24.02;;
35648;SDS011;21768;48.562;13.414;2022-12-18T15:40:19;83.15;;;23.02;;
35648;SDS011;21768;48.562;13.414;2022-12-18T15:42:46;37.85;;;13.85;;
35648;SDS011;21768;48.562;13.414;2022-12-18T15:45:32;39.40;;;12.52;;
35648;SDS011;21768;48.562;13.414;2022-12-18T15:47:58;74.00;;;22.30;;
35648;SDS011;21768;48.562;13.414;2022-12-18T15:50:24;61.85;;;18.58;;
35648;SDS011;21768;48.562;13.414;2022-12-18T15:52:51;74.13;;;21.70;;
35648;SDS011;21768;48.562;13.414;2022-12-18T15:55:19;54.03;;;17.60;;
35648;SDS011;21768;48.562;13.414;2022-12-18T15:58:06;34.45;;;14.25;;
35648;SDS011;21768;48.562;13.414;2022-12-18T16:00:33;30.65;;;13.73;;
35648;SDS011;21768;48.562;13.414;2022-12-18T16:02:59;39.00;;;13.88;;
35648;SDS011;21768;48.562;13.414;2022-12-18T16:05:25;31.77;;;12.88;;
35648;SDS011;21768;48.562;13.414;2022-12-18T16:07:52;36.45;;;13.63;;
35648;SDS011;21768;48.562;13.414;2022-12-18T16:10:18;33.58;;;13.82;;
35648;SDS011;21768;48.562;13.414;2022-12-18T16:12:43;36.42;;;14.13;;
35648;SDS011;21768;48.562;13.414;2022-12-18T16:15:10;39.20;;;14.15;;
35648;SDS011;21768;48.562;13.414;2022-12-18T16:17:38;36.67;;;14.70;;
35648;SDS011;21768;48.562;13.414;2022-12-18T16:20:05;42.42;;;15.60;;
35648;SDS011;21768;48.562;13.414;2022-12-18T16:22:31;45.60;;;16.42;;
35648;SDS011;21768;48.562;13.414;2022-12-18T16:24:57;39.92;;;15.45;;
35648;SDS011;21768;48.562;13.414;2022-12-18T16:27:23;52.88;;;16.33;;
35648;SDS011;21768;48.562;13.414;2022-12-18T16:29:49;41.13;;;15.60;;
35648;SDS011;21768;48.562;13.414;2022-12-18T16:32:15;37.97;;;15.32;;
35648;SDS011;21768;48.562;13.414;2022-12-18T16:34:43;46.60;;;15.57;;
35648;SDS011;21768;48.562;13.414;2022-12-18T16:37:10;39.67;;;14.75;;
35648;SDS011;21768;48.562;13.414;2022-12-18T16:39:37;42.03;;;16.13;;
35648;SDS011;21768;48.562;13.414;2022-12-18T16:42:09;44.38;;;16.98;;
35648;SDS011;21768;48.562;13.414;2022-12-18T16:44:41;41.70;;;16.08;;
35648;SDS011;21768;48.562;13.414;2022-12-18T16:47:07;44.10;;;16.17;;